createdAt,value
2022-08-09T00:00:34.565Z,23.21
2022-08-09T00:02:49.331Z,23.26
2022-08-09T00:05:03.507Z,23.25
2022-08-09T00:07:15.372Z,23.27
2022-08-09T00:09:21.035Z,23.33
2022-08-09T00:11:27.763Z,23.38
2022-08-09T00:13:46.892Z,23.42
2022-08-09T00:15:59.339Z,23.47
2022-08-09T00:18:10.914Z,23.49
2022-08-09T00:20:15.313Z,23.52
2022-08-09T00:22:18.325Z,23.53
2022-08-09T00:24:21.128Z,23.54
2022-08-09T00:26:30.022Z,23.53
2022-08-09T00:28:35.990Z,23.52
2022-08-09T00:30:39.557Z,23.51
2022-08-09T00:32:43.360Z,23.50
2022-08-09T00:34:52.218Z,23.47
2022-08-09T00:36:55.689Z,23.45
2022-08-09T00:38:59.728Z,23.40
2022-08-09T00:41:02.369Z,23.35
2022-08-09T00:44:16.376Z,23.41
2022-08-09T00:45:30.690Z,23.40
2022-08-09T00:47:39.847Z,23.45
2022-08-09T00:49:52.443Z,23.43
2022-08-09T00:51:57.618Z,23.41
2022-08-09T00:54:05.081Z,23.42
2022-08-09T00:56:09.851Z,23.43
2022-08-09T00:58:14.736Z,23.45
2022-08-09T01:00:25.054Z,23.45
2022-08-09T01:02:31.477Z,23.48
2022-08-09T01:04:44.312Z,23.50
2022-08-09T01:07:15.139Z,23.49
2022-08-09T01:09:54.308Z,23.48
2022-08-09T01:12:24.078Z,23.46
2022-08-09T01:14:41.166Z,23.44
2022-08-09T01:16:49.219Z,23.45
2022-08-09T01:19:02.651Z,23.46
2022-08-09T01:21:07.262Z,23.50
2022-08-09T01:24:03.258Z,23.52
2022-08-09T01:25:56.565Z,23.50
2022-08-09T01:28:01.702Z,23.52
2022-08-09T01:30:28.867Z,23.55
2022-08-09T01:32:37.391Z,23.58
2022-08-09T01:34:44.000Z,23.60
2022-08-09T01:36:49.332Z,23.60
2022-08-09T01:38:53.199Z,23.56
2022-08-09T01:41:13.479Z,23.51
2022-08-09T01:43:17.337Z,23.46
2022-08-09T01:45:22.747Z,23.42
2022-08-09T01:47:27.371Z,23.38
2022-08-09T01:49:39.217Z,23.35
2022-08-09T01:51:53.056Z,23.32
2022-08-09T01:53:58.762Z,23.31
2022-08-09T01:56:03.462Z,23.29
2022-08-09T01:58:09.199Z,23.30
2022-08-09T02:00:34.631Z,23.30
2022-08-09T02:02:42.111Z,23.30
2022-08-09T02:04:45.851Z,23.34
2022-08-09T02:07:18.186Z,23.36
2022-08-09T02:09:41.836Z,23.38
2022-08-09T02:11:45.943Z,23.43
2022-08-09T02:14:06.428Z,23.50
2022-08-09T02:16:12.762Z,23.57
2022-08-09T02:18:21.177Z,23.61
2022-08-09T02:20:34.060Z,23.69
2022-08-09T02:22:39.158Z,23.81
2022-08-09T02:24:46.363Z,23.93
2022-08-09T02:26:58.826Z,24.04
2022-08-09T02:29:10.899Z,24.10
2022-08-09T02:31:22.652Z,24.20
2022-08-09T02:33:37.715Z,24.26
2022-08-09T02:36:03.144Z,24.32
2022-08-09T02:38:07.155Z,24.36
2022-08-09T02:40:18.553Z,24.37
2022-08-09T02:42:37.298Z,24.40
2022-08-09T02:44:44.833Z,24.39
2022-08-09T02:46:52.397Z,24.36
2022-08-09T02:48:59.265Z,24.27
2022-08-09T02:51:03.451Z,24.20
2022-08-09T02:53:17.296Z,24.11
2022-08-09T02:55:39.434Z,24.12
2022-08-09T02:58:00.287Z,24.21
2022-08-09T03:00:25.282Z,24.20
2022-08-09T03:02:31.211Z,24.16
2022-08-09T03:04:36.658Z,24.18
2022-08-09T03:06:41.742Z,24.22
2022-08-09T03:08:49.690Z,24.25
2022-08-09T03:10:56.835Z,24.27
2022-08-09T03:13:04.713Z,24.29
2022-08-09T03:15:13.400Z,24.32
2022-08-09T03:17:26.767Z,24.37
2022-08-09T03:19:57.651Z,24.39
2022-08-09T03:21:57.315Z,24.44
2022-08-09T03:24:04.275Z,24.46
2022-08-09T03:26:08.751Z,24.50
2022-08-09T03:28:12.422Z,24.54
2022-08-09T03:30:29.847Z,24.59
2022-08-09T03:32:38.167Z,24.62
2022-08-09T03:34:41.551Z,24.67
2022-08-09T03:36:48.070Z,24.76
2022-08-09T03:39:02.369Z,24.83
2022-08-09T03:41:05.309Z,24.88
2022-08-09T03:43:08.384Z,24.96
2022-08-09T03:45:15.567Z,25.04
2022-08-09T03:47:18.397Z,25.13
2022-08-09T03:49:24.053Z,25.21
2022-08-09T03:51:55.509Z,25.27
2022-08-09T03:53:56.930Z,25.35
2022-08-09T03:56:02.986Z,25.40
2022-08-09T03:58:16.612Z,25.49
2022-08-09T04:00:23.798Z,25.54
2022-08-09T04:02:31.770Z,25.59
2022-08-09T04:04:38.813Z,25.66
2022-08-09T04:06:44.131Z,25.67
2022-08-09T04:08:53.512Z,25.67
2022-08-09T04:10:56.339Z,25.71
2022-08-09T04:13:11.573Z,25.63
2022-08-09T04:15:29.457Z,25.72
2022-08-09T04:17:42.398Z,25.73
2022-08-09T04:19:51.442Z,25.78
2022-08-09T04:21:59.228Z,25.79
2022-08-09T04:24:02.851Z,25.85
2022-08-09T04:26:05.664Z,25.88
2022-08-09T04:28:08.341Z,25.96
2022-08-09T04:30:14.005Z,26.06
2022-08-09T04:32:16.587Z,26.17
2022-08-09T04:34:30.743Z,26.27
2022-08-09T04:36:34.745Z,26.35
2022-08-09T04:38:37.387Z,26.33
2022-08-09T04:40:56.414Z,26.42
2022-08-09T04:42:59.842Z,26.43
2022-08-09T04:45:03.730Z,26.45
2022-08-09T04:47:07.612Z,26.47
2022-08-09T04:49:11.399Z,26.52
2022-08-09T04:51:17.470Z,26.56
2022-08-09T04:53:22.985Z,26.55
2022-08-09T04:55:25.576Z,26.64
2022-08-09T04:57:54.164Z,26.68
2022-08-09T04:59:52.656Z,26.72
2022-08-09T05:01:55.310Z,26.76
2022-08-09T05:03:58.759Z,26.85
2022-08-09T05:06:07.679Z,26.91
2022-08-09T05:08:14.001Z,26.95
2022-08-09T05:10:18.061Z,26.99
2022-08-09T05:12:22.546Z,27.04
2022-08-09T05:14:26.880Z,27.13
2022-08-09T05:16:31.602Z,27.22
2022-08-09T05:18:42.487Z,27.30
2022-08-09T05:20:58.303Z,27.32
2022-08-09T05:23:53.883Z,27.36
2022-08-09T05:25:25.800Z,27.41
2022-08-09T05:27:34.944Z,27.44
2022-08-09T05:29:48.518Z,27.51
2022-08-09T05:31:58.379Z,27.58
2022-08-09T05:34:01.578Z,27.68
2022-08-09T05:36:05.238Z,27.75
2022-08-09T05:38:09.891Z,27.78
2022-08-09T05:40:27.035Z,27.86
2022-08-09T05:42:29.761Z,27.89
2022-08-09T05:44:34.574Z,27.95
2022-08-09T05:46:37.786Z,27.99
2022-08-09T05:48:41.872Z,28.06
2022-08-09T05:50:51.009Z,28.15
2022-08-09T05:53:11.737Z,28.18
2022-08-09T05:55:31.340Z,28.25
2022-08-09T05:57:56.171Z,28.34
2022-08-09T05:59:58.106Z,28.41
2022-08-09T06:02:00.798Z,28.49
2022-08-09T06:04:05.919Z,28.53
2022-08-09T06:06:08.933Z,28.57
2022-08-09T06:08:12.518Z,28.67
2022-08-09T06:10:18.106Z,28.73
2022-08-09T06:12:22.199Z,28.79
2022-08-09T06:14:29.233Z,28.92
2022-08-09T06:16:31.804Z,28.98
2022-08-09T06:18:35.414Z,29.05
2022-08-09T06:20:39.422Z,29.12
2022-08-09T06:22:42.383Z,29.18
2022-08-09T06:24:48.995Z,29.22
2022-08-09T06:26:51.712Z,29.31
2022-08-09T06:28:59.880Z,29.35
2022-08-09T06:31:07.237Z,29.38
2022-08-09T06:33:30.538Z,29.44
2022-08-09T06:35:55.834Z,29.38
2022-08-09T06:38:05.863Z,29.26
2022-08-09T06:40:21.661Z,29.28
2022-08-09T06:42:28.585Z,29.19
2022-08-09T06:44:33.805Z,29.27
2022-08-09T06:46:40.365Z,29.36
2022-08-09T06:48:43.872Z,29.33
2022-08-09T06:50:47.988Z,29.30
2022-08-09T06:52:50.722Z,29.30
2022-08-09T06:54:54.331Z,29.43
2022-08-09T06:56:57.195Z,29.48
2022-08-09T07:00:51.245Z,29.59
2022-08-09T07:01:24.276Z,29.65
2022-08-09T07:03:39.534Z,29.67
2022-08-09T07:06:04.228Z,29.76
2022-08-09T07:08:08.077Z,29.87
2022-08-09T07:10:22.414Z,30.01
2022-08-09T07:12:38.041Z,30.11
2022-08-09T07:14:43.805Z,30.11
2022-08-09T07:16:48.092Z,30.05
2022-08-09T07:18:53.437Z,30.07
2022-08-09T07:20:56.536Z,30.03
2022-08-09T07:22:59.573Z,30.05
2022-08-09T07:25:05.068Z,30.13
2022-08-09T07:27:26.993Z,30.09
2022-08-09T07:29:37.685Z,30.03
2022-08-09T07:31:45.919Z,30.04
2022-08-09T07:33:52.730Z,30.12
2022-08-09T07:35:58.585Z,30.26
2022-08-09T07:38:01.217Z,30.27
2022-08-09T07:40:04.921Z,30.30
2022-08-09T07:42:07.891Z,30.31
2022-08-09T07:44:11.818Z,30.33
2022-08-09T07:46:19.072Z,30.27
2022-08-09T07:48:29.530Z,30.25
2022-08-09T07:50:36.553Z,30.38
2022-08-09T07:52:42.963Z,30.48
2022-08-09T07:54:45.892Z,30.31
2022-08-09T07:56:54.427Z,30.43
2022-08-09T07:58:57.227Z,30.44
2022-08-09T08:01:06.699Z,30.36
2022-08-09T08:03:14.099Z,30.24
2022-08-09T08:05:17.724Z,30.34
2022-08-09T08:08:44.321Z,30.40
2022-08-09T08:09:51.745Z,30.25
2022-08-09T08:12:11.532Z,30.13
2022-08-09T08:14:21.040Z,30.23
2022-08-09T08:16:29.732Z,30.37
2022-08-09T08:18:34.232Z,30.43
2022-08-09T08:20:39.636Z,30.37
2022-08-09T08:22:48.398Z,30.51
2022-08-09T08:24:56.267Z,30.63
2022-08-09T08:27:00.174Z,30.54
2022-08-09T08:29:02.769Z,30.61
2022-08-09T08:31:13.663Z,30.74
2022-08-09T08:33:24.024Z,30.85
2022-08-09T08:35:28.217Z,30.95
2022-08-09T08:38:02.202Z,30.93
2022-08-09T08:40:07.804Z,30.81
2022-08-09T08:42:11.839Z,30.90
2022-08-09T08:44:15.715Z,30.96
2022-08-09T08:46:41.550Z,30.93
2022-08-09T08:49:03.130Z,31.15
2022-08-09T08:51:08.830Z,31.17
2022-08-09T08:53:15.904Z,31.04
2022-08-09T08:55:24.886Z,31.09
2022-08-09T08:57:28.706Z,31.10
2022-08-09T08:59:46.672Z,31.24
2022-08-09T09:01:57.354Z,31.11
2022-08-09T09:04:04.253Z,31.03
2022-08-09T09:06:09.511Z,31.02
2022-08-09T09:08:30.142Z,31.23
2022-08-09T09:10:36.347Z,31.38
2022-08-09T09:12:40.601Z,31.37
2022-08-09T09:14:44.679Z,31.36
2022-08-09T09:16:47.458Z,31.45
2022-08-09T09:19:10.716Z,31.49
2022-08-09T09:21:18.082Z,31.42
2022-08-09T09:23:49.935Z,31.50
2022-08-09T09:26:11.971Z,31.53
2022-08-09T09:28:39.062Z,31.74
2022-08-09T09:30:57.402Z,31.92
2022-08-09T09:33:16.195Z,32.10
2022-08-09T09:35:20.793Z,32.20
2022-08-09T09:37:32.001Z,32.31
2022-08-09T09:39:50.238Z,32.35
2022-08-09T09:41:58.894Z,32.44
2022-08-09T09:44:11.783Z,32.60
2022-08-09T09:48:41.026Z,32.70
2022-08-09T09:50:50.774Z,32.77
2022-08-09T09:52:56.104Z,32.80
2022-08-09T09:55:16.534Z,32.74
2022-08-09T09:58:02.983Z,32.77
2022-08-09T09:59:55.175Z,32.66
2022-08-09T10:02:01.082Z,32.67
2022-08-09T10:04:30.303Z,32.66
2022-08-09T10:06:43.054Z,32.65
2022-08-09T10:08:54.989Z,32.67
2022-08-09T10:11:00.225Z,32.80
2022-08-09T10:13:24.727Z,32.79
2022-08-09T10:16:09.310Z,32.85
2022-08-09T10:18:13.343Z,32.94
2022-08-09T10:20:27.329Z,32.97
2022-08-09T10:22:39.122Z,33.09
2022-08-09T10:24:42.017Z,33.28
2022-08-09T10:26:48.820Z,33.45
2022-08-09T10:29:34.816Z,33.50
2022-08-09T10:34:08.336Z,33.76
2022-08-09T10:36:11.465Z,33.80
2022-08-09T10:38:55.270Z,33.90
2022-08-09T10:40:41.186Z,34.08
2022-08-09T10:42:47.535Z,34.24
2022-08-09T10:45:15.682Z,34.42
2022-08-09T10:48:26.601Z,34.56
2022-08-09T10:50:06.472Z,34.79
2022-08-09T10:52:35.708Z,34.88
2022-08-09T10:54:39.221Z,34.97
2022-08-09T10:56:43.020Z,34.98
2022-08-09T10:58:49.433Z,34.84
2022-08-09T11:01:10.780Z,34.64
2022-08-09T11:03:49.584Z,34.24
2022-08-09T11:06:18.807Z,34.47
2022-08-09T11:08:47.447Z,34.64
2022-08-09T11:10:54.729Z,34.83
2022-08-09T11:13:51.106Z,34.63
2022-08-09T11:15:38.622Z,34.61
2022-08-09T11:18:03.070Z,34.59
2022-08-09T11:20:20.307Z,34.66
2022-08-09T11:22:57.074Z,34.63
2022-08-09T11:25:08.972Z,34.83
2022-08-09T11:28:04.000Z,34.86
2022-08-09T11:30:31.889Z,34.44
2022-08-09T11:32:46.676Z,34.47
2022-08-09T11:34:52.459Z,34.42
2022-08-09T11:36:58.705Z,34.27
2022-08-09T11:39:03.014Z,34.08
2022-08-09T11:41:16.004Z,34.14
2022-08-09T11:43:40.987Z,34.15
2022-08-09T11:45:56.024Z,34.13
2022-08-09T11:48:11.149Z,34.24
2022-08-09T11:50:53.961Z,34.16
2022-08-09T11:53:58.020Z,34.07
2022-08-09T11:55:51.929Z,34.08
2022-08-09T11:58:02.056Z,34.24
2022-08-09T12:00:16.457Z,34.41
2022-08-09T12:02:37.686Z,34.73
2022-08-09T12:04:43.298Z,34.88
2022-08-09T12:06:55.528Z,35.06
2022-08-09T12:09:01.420Z,35.31
2022-08-09T12:11:04.613Z,35.26
2022-08-09T12:14:07.133Z,35.19
2022-08-09T12:16:27.211Z,35.13
2022-08-09T12:18:33.607Z,35.00
2022-08-09T12:20:43.857Z,35.19
2022-08-09T12:22:55.951Z,35.24
2022-08-09T12:25:16.864Z,35.26
2022-08-09T12:29:00.355Z,35.34
2022-08-09T12:30:01.866Z,35.60
2022-08-09T12:32:25.200Z,35.65
2022-08-09T12:34:39.888Z,35.32
2022-08-09T12:36:58.852Z,35.43
2022-08-09T12:39:14.947Z,35.42
2022-08-09T12:41:39.490Z,35.27
2022-08-09T12:44:06.324Z,34.93
2022-08-09T12:46:06.810Z,34.60
2022-08-09T12:48:27.893Z,34.68
2022-08-09T12:50:36.355Z,34.88
2022-08-09T12:53:09.108Z,35.23
2022-08-09T12:56:14.416Z,35.30
2022-08-09T12:57:50.758Z,35.26
2022-08-09T13:00:25.101Z,35.09
2022-08-09T13:02:28.226Z,35.48
2022-08-09T13:04:38.265Z,35.55
2022-08-09T13:06:42.383Z,35.65
2022-08-09T13:09:02.700Z,35.78
2022-08-09T13:11:13.390Z,36.00
2022-08-09T13:14:41.348Z,36.22
2022-08-09T13:16:17.509Z,36.32
2022-08-09T13:18:27.179Z,36.41
2022-08-09T13:20:37.224Z,36.68
2022-08-09T13:23:01.586Z,36.91
2022-08-09T13:25:14.099Z,36.72
2022-08-09T13:27:39.950Z,36.73
2022-08-09T13:30:04.203Z,36.87
2022-08-09T13:32:26.420Z,36.96
2022-08-09T13:34:36.153Z,36.93
2022-08-09T13:36:43.320Z,36.88
2022-08-09T13:38:55.063Z,36.85
2022-08-09T13:41:39.018Z,36.87
2022-08-09T13:43:35.622Z,36.92
2022-08-09T13:46:43.749Z,37.20
2022-08-09T13:48:04.417Z,37.43
2022-08-09T13:50:30.824Z,37.65
2022-08-09T13:52:34.785Z,37.81
2022-08-09T13:54:41.662Z,37.83
2022-08-09T13:56:47.004Z,38.00
2022-08-09T13:58:51.558Z,38.17
2022-08-09T14:00:54.795Z,38.53
2022-08-09T14:03:03.761Z,38.88
2022-08-09T14:05:59.082Z,39.01
2022-08-09T14:07:42.573Z,39.40
2022-08-09T14:09:45.226Z,39.65
2022-08-09T14:11:48.137Z,39.77
2022-08-09T14:14:23.377Z,39.72
2022-08-09T14:16:19.528Z,39.67
2022-08-09T14:18:32.102Z,39.59
2022-08-09T14:20:35.159Z,39.31
2022-08-09T14:22:37.941Z,38.76
2022-08-09T14:24:47.114Z,38.37
2022-08-09T14:26:56.477Z,38.09
2022-08-09T14:29:08.354Z,38.06
2022-08-09T14:31:49.487Z,37.98
2022-08-09T14:33:54.632Z,37.64
2022-08-09T14:35:57.511Z,37.50
2022-08-09T14:38:20.263Z,37.31
2022-08-09T14:40:39.179Z,37.16
2022-08-09T14:42:45.869Z,36.95
2022-08-09T14:44:59.853Z,37.14
2022-08-09T14:47:29.122Z,37.54
2022-08-09T14:49:26.780Z,37.64
2022-08-09T14:51:29.983Z,37.74
2022-08-09T14:53:32.954Z,37.76
2022-08-09T14:55:48.108Z,37.72
2022-08-09T14:57:52.956Z,37.49
2022-08-09T14:59:56.849Z,37.49
2022-08-09T15:01:59.462Z,37.51
2022-08-09T15:04:02.130Z,37.41
2022-08-09T15:06:05.381Z,37.13
2022-08-09T15:08:10.283Z,36.80
2022-08-09T15:10:16.127Z,36.52
2022-08-09T15:12:19.583Z,36.28
2022-08-09T15:14:23.427Z,36.04
2022-08-09T15:16:30.340Z,35.70
2022-08-09T15:18:33.918Z,35.39
2022-08-09T15:22:00.870Z,35.10
2022-08-09T15:23:03.302Z,34.72
2022-08-09T15:25:39.118Z,34.36
2022-08-09T15:27:48.093Z,33.79
2022-08-09T15:30:56.598Z,33.20
2022-08-09T15:32:28.918Z,32.90
2022-08-09T15:34:41.802Z,32.81
2022-08-09T15:36:48.227Z,32.59
2022-08-09T15:38:51.171Z,32.34
2022-08-09T15:40:53.769Z,32.15
2022-08-09T15:42:56.444Z,31.96
2022-08-09T15:45:00.238Z,31.77
2022-08-09T15:47:03.669Z,31.57
2022-08-09T15:49:23.558Z,31.44
2022-08-09T15:51:44.573Z,31.32
2022-08-09T15:54:05.123Z,31.23
2022-08-09T15:56:21.413Z,31.02
2022-08-09T15:58:31.515Z,30.91
2022-08-09T16:00:35.629Z,30.91
2022-08-09T16:02:38.459Z,30.89
2022-08-09T16:04:42.739Z,30.78
2022-08-09T16:06:50.579Z,30.66
2022-08-09T16:08:56.178Z,30.55
2022-08-09T16:11:02.840Z,30.49
2022-08-09T16:13:18.752Z,30.49
2022-08-09T16:16:04.834Z,30.42
2022-08-09T16:17:52.195Z,30.33
2022-08-09T16:20:03.842Z,30.29
2022-08-09T16:22:07.830Z,30.19
2022-08-09T16:24:30.007Z,30.08
2022-08-09T16:26:38.021Z,29.95
2022-08-09T16:28:40.666Z,29.93
2022-08-09T16:30:44.983Z,29.90
2022-08-09T16:33:10.695Z,29.83
2022-08-09T16:35:53.063Z,29.73
2022-08-09T16:37:53.566Z,29.59
2022-08-09T16:40:05.380Z,29.48
2022-08-09T16:42:14.760Z,29.43
2022-08-09T16:44:19.384Z,29.39
2022-08-09T16:46:24.218Z,29.34
2022-08-09T16:48:41.607Z,29.32
2022-08-09T16:50:59.068Z,29.33
2022-08-09T16:53:09.854Z,29.32
2022-08-09T16:55:15.828Z,29.24
2022-08-09T16:57:20.867Z,29.20
2022-08-09T16:59:23.463Z,29.14
2022-08-09T17:01:26.685Z,29.11
2022-08-09T17:03:30.185Z,29.07
2022-08-09T17:06:02.799Z,29.04
2022-08-09T17:08:44.101Z,28.98
2022-08-09T17:10:20.112Z,28.95
2022-08-09T17:12:23.668Z,28.92
2022-08-09T17:14:28.735Z,28.88
2022-08-09T17:16:31.996Z,28.84
2022-08-09T17:18:41.138Z,28.80
2022-08-09T17:20:52.512Z,28.74
2022-08-09T17:23:00.239Z,28.67
2022-08-09T17:25:10.152Z,28.63
2022-08-09T17:27:15.343Z,28.55
2022-08-09T17:29:20.076Z,28.45
2022-08-09T17:31:23.602Z,28.37
2022-08-09T17:33:26.301Z,28.22
2022-08-09T17:35:40.810Z,28.05
2022-08-09T17:38:12.745Z,27.97
2022-08-09T17:40:18.264Z,27.88
2022-08-09T17:42:40.800Z,27.81
2022-08-09T17:44:49.458Z,27.73
2022-08-09T17:46:55.814Z,27.67
2022-08-09T17:49:00.458Z,27.59
2022-08-09T17:51:09.773Z,27.56
2022-08-09T17:53:22.309Z,27.56
2022-08-09T17:55:25.378Z,27.53
2022-08-09T17:58:03.204Z,27.43
2022-08-09T18:00:07.800Z,27.39
2022-08-09T18:02:12.838Z,27.35
2022-08-09T18:04:22.249Z,27.30
2022-08-09T18:06:32.070Z,27.18
2022-08-09T18:08:35.754Z,26.96
2022-08-09T18:10:40.047Z,26.83
2022-08-09T18:13:40.676Z,26.86
2022-08-09T18:15:13.417Z,26.87
2022-08-09T18:17:18.850Z,26.86
2022-08-09T18:20:57.866Z,26.85
2022-08-09T18:21:53.030Z,26.84
2022-08-09T18:24:11.440Z,26.81
2022-08-09T18:26:16.713Z,26.80
2022-08-09T18:30:40.805Z,26.77
2022-08-09T18:30:49.646Z,26.70
2022-08-09T18:32:54.249Z,26.56
2022-08-09T18:34:57.503Z,26.44
2022-08-09T18:37:00.222Z,26.33
2022-08-09T18:39:04.471Z,26.23
2022-08-09T18:41:07.495Z,26.15
2022-08-09T18:43:15.834Z,26.06
2022-08-09T18:46:44.910Z,26.05
2022-08-09T18:47:41.214Z,26.02
2022-08-09T18:49:47.020Z,26.02
2022-08-09T18:51:55.017Z,26.01
2022-08-09T18:54:10.534Z,26.00
2022-08-09T18:56:27.072Z,25.96
2022-08-09T18:58:32.497Z,25.96
2022-08-09T19:00:35.827Z,25.97
2022-08-09T19:02:40.295Z,25.98
2022-08-09T19:04:48.018Z,26.00
2022-08-09T19:07:07.406Z,26.00
2022-08-09T19:09:13.742Z,26.03
2022-08-09T19:11:37.716Z,26.02
2022-08-09T19:13:51.352Z,26.01
2022-08-09T19:15:56.222Z,25.99
2022-08-09T19:17:59.434Z,25.99
2022-08-09T19:20:04.002Z,26.00
2022-08-09T19:22:07.472Z,25.95
2022-08-09T19:24:36.557Z,25.92
2022-08-09T19:26:34.893Z,25.73
2022-08-09T19:28:38.423Z,25.55
2022-08-09T19:30:45.462Z,25.24
2022-08-09T19:32:52.966Z,25.09
2022-08-09T19:34:57.489Z,24.97
2022-08-09T19:37:00.459Z,24.78
2022-08-09T19:39:05.630Z,24.63
2022-08-09T19:41:08.703Z,24.46
2022-08-09T19:43:16.293Z,24.37
2022-08-09T19:45:39.123Z,24.23
2022-08-09T19:47:45.130Z,24.12
2022-08-09T19:50:09.026Z,24.01
2022-08-09T19:52:12.168Z,23.80
2022-08-09T19:54:15.170Z,23.66
2022-08-09T19:56:17.982Z,23.62
2022-08-09T19:58:31.509Z,23.57
2022-08-09T20:00:35.458Z,23.52
2022-08-09T20:04:17.840Z,23.48
2022-08-09T20:05:10.000Z,23.33
2022-08-09T20:07:21.309Z,23.21
2022-08-09T20:09:44.300Z,23.08
2022-08-09T20:11:53.107Z,23.02
2022-08-09T20:13:56.662Z,22.97
2022-08-09T20:16:34.154Z,22.94
2022-08-09T20:18:27.820Z,22.84
2022-08-09T20:20:31.254Z,22.81
2022-08-09T20:22:37.872Z,22.81
2022-08-09T20:24:41.036Z,22.81
2022-08-09T20:26:43.770Z,22.82
2022-08-09T20:28:49.780Z,22.77
2022-08-09T20:30:52.684Z,22.80
2022-08-09T20:32:57.740Z,22.71
2022-08-09T20:35:01.436Z,22.66
2022-08-09T20:37:06.428Z,22.60
2022-08-09T20:39:28.725Z,22.56
2022-08-09T20:41:37.548Z,22.48
2022-08-09T20:43:44.843Z,22.45
2022-08-09T20:45:59.591Z,22.45
2022-08-09T20:48:05.234Z,22.40
2022-08-09T20:50:14.815Z,22.40
2022-08-09T20:52:36.794Z,22.37
2022-08-09T20:54:40.480Z,22.37
2022-08-09T20:56:55.532Z,22.38
2022-08-09T20:58:59.311Z,22.41
2022-08-09T21:01:32.777Z,22.45
2022-08-09T21:03:31.131Z,22.52
2022-08-09T21:05:59.985Z,22.52
2022-08-09T21:08:02.817Z,22.55
2022-08-09T21:10:07.028Z,22.55
2022-08-09T21:14:19.249Z,22.53
2022-08-09T21:16:21.931Z,22.52
2022-08-09T21:18:33.431Z,22.48
2022-08-09T21:20:56.699Z,22.41
2022-08-09T21:23:00.709Z,22.38
2022-08-09T21:25:22.333Z,22.40
2022-08-09T21:27:52.713Z,22.45
2022-08-09T21:29:55.749Z,22.46
2022-08-09T21:31:58.644Z,22.46
2022-08-09T21:34:02.985Z,22.45
2022-08-09T21:36:10.163Z,22.42
2022-08-09T21:38:15.219Z,22.42
2022-08-09T21:40:30.282Z,22.38
2022-08-09T21:42:33.633Z,22.34
2022-08-09T21:44:37.169Z,22.30
2022-08-09T21:46:40.492Z,22.25
2022-08-09T21:48:49.083Z,22.24
2022-08-09T21:50:52.266Z,22.20
2022-08-09T21:52:56.041Z,22.17
2022-08-09T21:55:03.731Z,22.17
2022-08-09T21:57:37.315Z,22.15
2022-08-09T21:59:42.792Z,22.10
2022-08-09T22:01:58.765Z,22.07
2022-08-09T22:04:02.843Z,22.05
2022-08-09T22:06:05.807Z,22.02
2022-08-09T22:08:13.235Z,22.02
2022-08-09T22:10:22.972Z,22.01
2022-08-09T22:12:34.868Z,21.97
2022-08-09T22:14:37.532Z,21.94
2022-08-09T22:16:40.410Z,21.92
2022-08-09T22:18:53.262Z,21.89
2022-08-09T22:20:57.323Z,21.83
2022-08-09T22:23:00.495Z,21.79
2022-08-09T22:26:04.533Z,21.77
2022-08-09T22:27:26.503Z,21.75
2022-08-09T22:29:46.311Z,21.76
2022-08-09T22:31:56.530Z,21.72
2022-08-09T22:33:59.872Z,21.71
2022-08-09T22:36:03.762Z,21.72
2022-08-09T22:38:08.004Z,21.67
2022-08-09T22:40:18.248Z,21.64
2022-08-09T22:42:23.635Z,21.64
2022-08-09T22:44:32.699Z,21.61
2022-08-09T22:48:12.673Z,21.57
2022-08-09T22:49:01.849Z,21.40
2022-08-09T22:51:17.877Z,21.44
2022-08-09T22:53:44.239Z,21.45
2022-08-09T22:56:33.029Z,21.38
2022-08-09T22:58:30.557Z,21.31
2022-08-09T23:00:34.847Z,21.18
2022-08-09T23:02:40.615Z,21.21
2022-08-09T23:04:53.619Z,21.22
2022-08-09T23:07:16.323Z,21.14
2022-08-09T23:09:19.137Z,21.06
2022-08-09T23:11:22.615Z,20.96
2022-08-09T23:13:25.339Z,20.89
2022-08-09T23:15:29.228Z,20.87
2022-08-09T23:17:32.227Z,20.89
2022-08-09T23:20:00.857Z,20.84
2022-08-09T23:21:57.792Z,20.83
2022-08-09T23:24:05.138Z,20.77
2022-08-09T23:26:09.522Z,20.77
2022-08-09T23:28:15.548Z,20.79
2022-08-09T23:30:18.724Z,20.81
2022-08-09T23:32:21.394Z,20.81
2022-08-09T23:34:24.108Z,20.78
2022-08-09T23:36:26.720Z,20.77
2022-08-09T23:38:29.397Z,20.78
2022-08-09T23:40:32.111Z,20.77
2022-08-09T23:42:34.892Z,20.75
2022-08-09T23:44:37.669Z,20.68
2022-08-09T23:46:40.648Z,20.69
2022-08-09T23:48:43.319Z,20.68
2022-08-09T23:50:46.714Z,20.66
2022-08-09T23:52:49.399Z,20.64
2022-08-09T23:54:52.856Z,20.61
2022-08-09T23:56:56.150Z,20.60
2022-08-09T23:59:00.903Z,20.59
